createdAt,value
2019-05-14T00:03:51.447Z,102154.39
2019-05-14T00:08:53.339Z,102150.62
2019-05-14T00:13:55.558Z,102149.23
2019-05-14T00:18:57.979Z,102149.72
2019-05-14T00:24:01.834Z,102151.59
2019-05-14T00:29:04.812Z,102148.95
2019-05-14T00:34:07.237Z,102144.98
2019-05-14T00:39:11.221Z,102145.11
2019-05-14T00:44:13.678Z,102152.73
2019-05-14T00:49:16.024Z,102146.89
2019-05-14T00:54:18.173Z,102155.48
2019-05-14T00:59:21.640Z,102145.70
2019-05-14T01:04:24.015Z,102153.11
2019-05-14T01:09:26.211Z,102143.00
2019-05-14T01:14:28.294Z,102139.72
2019-05-14T01:19:31.589Z,102138.77
2019-05-14T01:24:33.910Z,102131.38
2019-05-14T01:29:37.152Z,102136.73
2019-05-14T01:34:41.683Z,102145.14
2019-05-14T01:39:43.578Z,102140.97
2019-05-14T01:44:45.715Z,102132.30
2019-05-14T01:49:47.730Z,102139.72
2019-05-14T01:54:51.522Z,102146.38
2019-05-14T01:59:53.863Z,102145.55
2019-05-14T02:04:56.044Z,102140.25
2019-05-14T02:09:58.033Z,102142.77
2019-05-14T02:15:01.920Z,102138.53
2019-05-14T02:20:05.145Z,102128.63
2019-05-14T02:25:07.949Z,102128.20
2019-05-14T02:30:10.332Z,102126.36
2019-05-14T02:35:12.770Z,102124.63
2019-05-14T02:40:14.958Z,102135.61
2019-05-14T02:45:19.829Z,102128.91
2019-05-14T02:50:21.301Z,102127.70
2019-05-14T02:55:23.563Z,102134.45
2019-05-14T03:00:25.766Z,102126.44
2019-05-14T03:05:29.552Z,102131.63
2019-05-14T03:10:32.057Z,102135.71
2019-05-14T03:15:34.287Z,102134.41
2019-05-14T03:20:38.967Z,102133.44
2019-05-14T03:25:40.693Z,102132.09
2019-05-14T03:30:44.398Z,102132.80
2019-05-14T03:38:52.991Z,102136.22
2019-05-14T03:43:55.195Z,102128.12
2019-05-14T03:49:00.051Z,102132.89
2019-05-14T03:54:07.119Z,102135.46
2019-05-14T03:59:09.239Z,102131.65
2019-05-14T04:04:10.530Z,102131.28
2019-05-14T04:09:13.709Z,102132.98
2019-05-14T04:14:20.101Z,102138.52
2019-05-14T04:19:23.654Z,102142.78
2019-05-14T04:24:29.785Z,102141.23
2019-05-14T04:29:34.158Z,102139.82
2019-05-14T04:34:39.374Z,102137.45
2019-05-14T04:39:40.503Z,102139.16
2019-05-14T04:44:42.834Z,102130.11
2019-05-14T04:49:44.926Z,102132.48
2019-05-14T04:54:49.939Z,102127.64
2019-05-14T04:59:51.104Z,102129.17
2019-05-14T05:04:53.119Z,102136.78
2019-05-14T05:09:55.149Z,102131.89
2019-05-14T05:14:58.610Z,102139.48
2019-05-14T05:20:00.835Z,102140.80
2019-05-14T05:25:03.198Z,102140.74
2019-05-14T05:30:05.598Z,102139.53
2019-05-14T05:35:09.651Z,102146.67
2019-05-14T05:40:12.412Z,102139.86
2019-05-14T05:45:14.945Z,102141.42
2019-05-14T05:50:19.328Z,102133.50
2019-05-14T05:55:21.556Z,102131.95
2019-05-14T06:00:34.384Z,102135.46
2019-05-14T06:05:44.440Z,102135.77
2019-05-14T06:10:48.951Z,102127.45
2019-05-14T06:15:52.313Z,102128.72
2019-05-14T06:20:54.757Z,102120.45
2019-05-14T06:25:59.709Z,102117.90
2019-05-14T06:31:01.187Z,102117.06
2019-05-14T06:36:03.301Z,102114.61
2019-05-14T06:41:05.457Z,102108.32
2019-05-14T06:46:09.183Z,102111.05
2019-05-14T06:51:12.460Z,102108.63
2019-05-14T06:56:17.769Z,102121.87
2019-05-14T07:01:18.825Z,102125.22
2019-05-14T07:06:20.989Z,102117.22
2019-05-14T07:11:24.365Z,102120.02
2019-05-14T07:16:28.740Z,102107.50
2019-05-14T07:21:30.516Z,102108.39
2019-05-14T07:26:32.920Z,102117.45
2019-05-14T07:31:35.019Z,102110.99
2019-05-14T07:36:38.663Z,102114.65
2019-05-14T07:41:40.918Z,102113.58
2019-05-14T07:46:43.054Z,102110.30
2019-05-14T07:51:45.158Z,102103.69
2019-05-14T07:56:50.880Z,102093.21
2019-05-14T08:01:51.634Z,102094.92
2019-05-14T08:06:53.936Z,102097.48
2019-05-14T08:11:58.557Z,102088.92
2019-05-14T08:17:00.419Z,102079.41
2019-05-14T08:22:02.615Z,102083.05
2019-05-14T08:27:05.813Z,102082.59
2019-05-14T08:32:08.803Z,102071.34
2019-05-14T08:37:11.248Z,102077.42
2019-05-14T08:42:13.356Z,102069.30
2019-05-14T08:47:18.330Z,102063.11
2019-05-14T08:52:20.569Z,102066.22
2019-05-14T08:57:22.702Z,102059.05
2019-05-14T09:02:25.034Z,102063.75
2019-05-14T09:07:28.955Z,102059.30
2019-05-14T09:12:31.027Z,102047.52
2019-05-14T09:17:33.260Z,102043.23
2019-05-14T09:22:36.097Z,102033.52
2019-05-14T09:27:38.897Z,102028.98
2019-05-14T09:32:41.062Z,102033.63
2019-05-14T09:37:43.104Z,102030.13
2019-05-14T09:42:45.218Z,102020.60
2019-05-14T09:47:50.402Z,102006.43
2019-05-14T09:52:51.409Z,102019.36
2019-05-14T09:57:53.525Z,101997.88
2019-05-14T10:02:55.696Z,101993.33
2019-05-14T10:07:59.416Z,101988.99
2019-05-14T10:13:02.021Z,101985.25
2019-05-14T10:18:05.666Z,101994.53
2019-05-14T10:23:09.376Z,101995.56
2019-05-14T10:28:11.722Z,101987.31
2019-05-14T10:33:14.898Z,101985.05
2019-05-14T10:38:19.020Z,101985.57
2019-05-14T10:43:21.363Z,101970.66
2019-05-14T10:48:23.554Z,101954.26
2019-05-14T10:53:28.659Z,101954.26
2019-05-14T10:58:29.724Z,101952.70
2019-05-14T11:03:31.947Z,101952.70
2019-05-14T11:08:33.956Z,101945.84
2019-05-14T11:13:36.178Z,101943.36
2019-05-14T11:18:40.004Z,101932.22
2019-05-14T11:23:43.254Z,101940.27
2019-05-14T11:28:45.379Z,101929.98
2019-05-14T11:33:49.637Z,101919.54
2019-05-14T11:38:52.130Z,101912.77
2019-05-14T11:43:54.380Z,101909.92
2019-05-14T11:48:59.198Z,101906.31
2019-05-14T11:54:00.511Z,101903.29
2019-05-14T11:59:02.781Z,101908.46
2019-05-14T12:04:08.697Z,101898.19
2019-05-14T12:09:11.796Z,101903.86
2019-05-14T12:14:14.097Z,101897.80
2019-05-14T12:19:18.675Z,101874.75
2019-05-14T12:24:20.322Z,101874.75
2019-05-14T12:29:22.344Z,101862.66
2019-05-14T12:34:29.275Z,101865.25
2019-05-14T12:39:31.417Z,101857.95
2019-05-14T12:44:37.214Z,101863.27
2019-05-14T12:49:39.333Z,101860.87
2019-05-14T12:54:41.438Z,101855.86
2019-05-14T12:59:43.788Z,101855.05
2019-05-14T13:04:48.626Z,101843.94
2019-05-14T13:09:50.888Z,101836.03
2019-05-14T13:14:52.906Z,101825.69
2019-05-14T13:19:56.174Z,101828.66
2019-05-14T13:24:58.302Z,101823.55
2019-05-14T13:30:00.345Z,101810.22
2019-05-14T13:35:02.912Z,101812.09
2019-05-14T13:40:05.581Z,101797.86
2019-05-14T13:45:10.363Z,101791.85
2019-05-14T13:50:12.682Z,101782.11
2019-05-14T13:55:15.484Z,101785.21
2019-05-14T14:00:19.891Z,101794.77
2019-05-14T14:05:21.735Z,101779.88
2019-05-14T14:10:24.015Z,101786.97
2019-05-14T14:15:28.733Z,101782.46
2019-05-14T14:20:30.291Z,101772.42
2019-05-14T14:25:32.517Z,101759.97
2019-05-14T14:30:34.627Z,101761.20
2019-05-14T14:35:38.785Z,101757.52
2019-05-14T14:40:40.884Z,101764.17
2019-05-14T14:45:45.242Z,101739.14
2019-05-14T14:50:49.667Z,101753.28
2019-05-14T14:55:51.188Z,101745.17
2019-05-14T15:01:00.335Z,101742.44
2019-05-14T15:06:02.551Z,101729.77
2019-05-14T15:11:04.651Z,101713.86
2019-05-14T15:16:12.831Z,101706.59
2019-05-14T15:21:11.084Z,101712.94
2019-05-14T15:26:13.581Z,101698.11
2019-05-14T15:31:15.688Z,101695.77
2019-05-14T15:36:19.695Z,101694.91
2019-05-14T15:41:22.256Z,101705.34
2019-05-14T15:46:24.421Z,101699.96
2019-05-14T15:51:28.503Z,101692.17
2019-05-14T15:56:30.431Z,101704.69
2019-05-14T16:01:32.470Z,101704.30
2019-05-14T16:06:34.519Z,101693.12
2019-05-14T16:11:36.503Z,101681.03
2019-05-14T16:16:39.183Z,101670.54
2019-05-14T16:21:41.628Z,101668.02
2019-05-14T16:26:43.917Z,101661.98
2019-05-14T16:31:48.567Z,101668.17
2019-05-14T16:36:50.236Z,101670.67
2019-05-14T16:41:52.238Z,101662.78
2019-05-14T16:46:54.263Z,101668.14
2019-05-14T16:51:59.393Z,101668.94
2019-05-14T16:57:00.248Z,101657.14
2019-05-14T17:02:02.444Z,101672.73
2019-05-14T17:07:04.734Z,101659.69
2019-05-14T17:12:08.524Z,101667.37
2019-05-14T17:17:10.878Z,101666.28
2019-05-14T17:22:25.432Z,101664.55
2019-05-14T17:27:17.273Z,101650.73
2019-05-14T17:32:19.463Z,101662.50
2019-05-14T17:37:23.961Z,101664.23
2019-05-14T17:42:28.351Z,101667.27
2019-05-14T17:47:30.614Z,101667.12
2019-05-14T17:52:32.593Z,101665.33
2019-05-14T17:57:35.919Z,101665.34
2019-05-14T18:02:38.958Z,101673.48
2019-05-14T18:07:41.359Z,101668.83
2019-05-14T18:12:43.785Z,101664.53
2019-05-14T18:17:46.001Z,101668.45
2019-05-14T18:22:48.704Z,101697.38
2019-05-14T18:27:50.832Z,101666.78
2019-05-14T18:32:54.234Z,101665.41
2019-05-14T18:37:56.343Z,101675.28
2019-05-14T18:42:59.346Z,101677.45
2019-05-14T18:48:01.515Z,101676.44
2019-05-14T18:53:03.618Z,101677.23
2019-05-14T18:58:08.427Z,101674.28
2019-05-14T19:03:10.585Z,101678.95
2019-05-14T19:08:12.744Z,101689.97
2019-05-14T19:13:14.977Z,101688.27
2019-05-14T19:18:19.151Z,101691.22
2019-05-14T19:23:21.060Z,101689.44
2019-05-14T19:28:23.167Z,101699.97
2019-05-14T19:33:25.260Z,101688.41
2019-05-14T19:38:27.384Z,101691.72
2019-05-14T19:43:29.575Z,101694.29
2019-05-14T19:48:33.020Z,101696.48
2019-05-14T19:53:35.172Z,101693.16
2019-05-14T19:58:38.433Z,101690.98
2019-05-14T20:03:40.816Z,101695.63
2019-05-14T20:08:43.021Z,101701.50
2019-05-14T20:13:45.111Z,101704.05
2019-05-14T20:18:48.737Z,101704.61
2019-05-14T20:23:51.047Z,101699.33
2019-05-14T20:28:53.149Z,101687.04
2019-05-14T20:33:55.162Z,101684.23
2019-05-14T20:38:58.934Z,101686.89
2019-05-14T20:44:01.355Z,101683.72
2019-05-14T20:49:03.686Z,101681.38
2019-05-14T20:54:05.869Z,101675.88
2019-05-14T20:59:08.366Z,101676.84
2019-05-14T21:04:10.773Z,101675.86
2019-05-14T21:09:13.332Z,101679.97
2019-05-14T21:14:18.151Z,101675.44
2019-05-14T21:19:19.827Z,101673.94
2019-05-14T21:24:22.190Z,101667.97
2019-05-14T21:29:24.355Z,101668.72
2019-05-14T21:34:28.220Z,101663.73
2019-05-14T21:39:30.478Z,101661.41
2019-05-14T21:44:32.538Z,101657.89
2019-05-14T21:49:34.621Z,101654.20
2019-05-14T21:54:39.286Z,101653.55
2019-05-14T21:59:40.968Z,101656.94
2019-05-14T22:04:42.973Z,101647.41
2019-05-14T22:09:45.488Z,101645.80
2019-05-14T22:14:48.202Z,101635.07
2019-05-14T22:19:50.411Z,101637.78
2019-05-14T22:24:52.495Z,101631.10
2019-05-14T22:29:54.620Z,101633.72
2019-05-14T22:34:58.572Z,101631.34
2019-05-14T22:40:00.931Z,101628.58
2019-05-14T22:45:03.857Z,101623.94
2019-05-14T22:50:08.523Z,101617.95
2019-05-14T22:55:10.710Z,101617.42
2019-05-14T23:00:13.159Z,101618.45
2019-05-14T23:05:19.088Z,101627.22
2019-05-14T23:10:21.091Z,101618.41
2019-05-14T23:15:24.500Z,101628.05
2019-05-14T23:20:28.986Z,101621.77
2019-05-14T23:25:30.456Z,101616.32
2019-05-14T23:30:32.999Z,101618.53
2019-05-14T23:35:35.368Z,101614.30
2019-05-14T23:40:38.735Z,101607.84
2019-05-14T23:45:41.157Z,101600.58
2019-05-14T23:50:43.220Z,101595.45
2019-05-14T23:55:45.244Z,101598.27
